createdAt,value
2019-02-05T00:01:42.762Z,84.30
2019-02-05T00:04:12.542Z,86.67
2019-02-05T00:06:42.192Z,87.45
2019-02-05T00:09:13.770Z,86.93
2019-02-05T00:11:43.438Z,89.69
2019-02-05T00:14:13.522Z,93.46
2019-02-05T00:16:43.640Z,92.66
2019-02-05T00:19:13.507Z,91.94
2019-02-05T00:21:43.184Z,96.40
2019-02-05T00:24:12.897Z,96.02
2019-02-05T00:26:42.568Z,100.00
2019-02-05T00:29:12.321Z,100.00
2019-02-05T00:31:41.989Z,100.00
2019-02-05T00:34:11.637Z,100.00
2019-02-05T00:36:41.490Z,100.00
2019-02-05T00:39:11.175Z,100.00
2019-02-05T00:41:40.980Z,100.00
2019-02-05T00:44:10.891Z,100.00
2019-02-05T00:46:40.563Z,100.00
2019-02-05T00:49:10.168Z,100.00
2019-02-05T00:51:39.891Z,100.00
2019-02-05T00:54:09.717Z,100.00
2019-02-05T00:56:39.600Z,100.00
2019-02-05T00:59:09.875Z,100.00
2019-02-05T01:01:39.552Z,100.00
2019-02-05T01:04:09.301Z,100.00
2019-02-05T01:06:38.946Z,100.00
2019-02-05T01:09:10.661Z,100.00
2019-02-05T01:11:40.301Z,100.00
2019-02-05T01:14:10.152Z,100.00
2019-02-05T01:16:39.712Z,100.00
2019-02-05T01:19:09.586Z,100.00
2019-02-05T01:21:39.281Z,100.00
2019-02-05T01:24:09.110Z,100.00
2019-02-05T01:26:39.428Z,100.00
2019-02-05T01:29:09.366Z,100.00
2019-02-05T01:31:39.003Z,100.00
2019-02-05T01:34:08.698Z,100.00
2019-02-05T01:36:38.260Z,100.00
2019-02-05T01:39:08.807Z,100.00
2019-02-05T01:41:38.665Z,100.00
2019-02-05T01:44:08.801Z,100.00
2019-02-05T01:46:38.372Z,100.00
2019-02-05T01:49:08.026Z,100.00
2019-02-05T01:51:37.690Z,100.00
2019-02-05T01:54:07.361Z,100.00
2019-02-05T01:56:40.770Z,100.00
2019-02-05T01:59:08.561Z,100.00
2019-02-05T02:01:38.279Z,100.00
2019-02-05T02:04:08.276Z,100.00
2019-02-05T02:06:37.966Z,100.00
2019-02-05T02:09:08.131Z,100.00
2019-02-05T02:11:38.039Z,100.00
2019-02-05T02:14:14.879Z,100.00
2019-02-05T02:16:44.490Z,100.00
2019-02-05T02:19:14.175Z,100.00
2019-02-05T02:21:43.855Z,100.00
2019-02-05T02:24:13.565Z,100.00
2019-02-05T02:26:51.805Z,100.00
2019-02-05T02:29:14.518Z,100.00
2019-02-05T02:31:44.239Z,100.00
2019-02-05T02:34:13.819Z,100.00
2019-02-05T02:36:43.852Z,100.00
2019-02-05T02:39:13.427Z,100.00
2019-02-05T02:41:43.297Z,100.00
2019-02-05T02:44:12.926Z,100.00
2019-02-05T02:46:42.809Z,100.00
2019-02-05T02:49:12.743Z,100.00
2019-02-05T02:51:42.965Z,100.00
2019-02-05T02:54:12.586Z,100.00
2019-02-05T02:56:42.328Z,100.00
2019-02-05T02:59:11.896Z,100.00
2019-02-05T03:01:41.760Z,100.00
2019-02-05T03:04:11.425Z,100.00
2019-02-05T03:06:41.456Z,100.00
2019-02-05T03:09:11.332Z,100.00
2019-02-05T03:11:41.084Z,100.00
2019-02-05T03:14:11.087Z,100.00
2019-02-05T03:16:40.900Z,100.00
2019-02-05T03:19:10.622Z,100.00
2019-02-05T03:21:40.359Z,100.00
2019-02-05T03:24:09.875Z,100.00
2019-02-05T03:26:39.729Z,100.00
2019-02-05T03:29:09.365Z,100.00
2019-02-05T03:31:39.216Z,100.00
2019-02-05T03:34:09.027Z,100.00
2019-02-05T03:36:38.672Z,100.00
2019-02-05T03:39:08.805Z,100.00
2019-02-05T03:41:38.455Z,100.00
2019-02-05T03:44:08.284Z,100.00
2019-02-05T03:46:38.070Z,100.00
2019-02-05T03:49:08.015Z,100.00
2019-02-05T03:51:45.041Z,100.00
2019-02-05T03:54:49.922Z,100.00
2019-02-05T03:57:36.013Z,100.00
2019-02-05T04:00:19.121Z,100.00
2019-02-05T04:03:05.327Z,100.00
2019-02-05T04:05:54.703Z,100.00
2019-02-05T04:08:53.006Z,100.00
2019-02-05T04:11:45.231Z,100.00
2019-02-05T04:14:40.191Z,100.00
2019-02-05T04:17:20.261Z,100.00
2019-02-05T04:20:00.327Z,100.00
2019-02-05T04:23:03.594Z,100.00
2019-02-05T04:26:22.061Z,100.00
2019-02-05T04:29:01.738Z,100.00
2019-02-05T04:32:05.695Z,100.00
2019-02-05T04:34:45.802Z,100.00
2019-02-05T04:37:58.031Z,100.00
2019-02-05T04:40:59.734Z,100.00
2019-02-05T04:43:45.928Z,100.00
2019-02-05T04:46:38.035Z,100.00
2019-02-05T04:49:33.280Z,100.00
2019-02-05T04:52:30.528Z,100.00
2019-02-05T04:55:32.049Z,100.00
2019-02-05T04:58:30.564Z,100.00
2019-02-05T05:01:37.899Z,100.00
2019-02-05T05:04:17.422Z,100.00
2019-02-05T05:06:54.851Z,100.00
2019-02-05T05:09:44.178Z,100.00
2019-02-05T05:12:13.771Z,100.00
2019-02-05T05:14:43.792Z,100.00
2019-02-05T05:17:13.351Z,100.00
2019-02-05T05:19:43.328Z,100.00
2019-02-05T05:22:13.260Z,100.00
2019-02-05T05:24:43.753Z,100.00
2019-02-05T05:27:16.473Z,100.00
2019-02-05T05:29:46.653Z,100.00
2019-02-05T05:32:16.603Z,100.00
2019-02-05T05:34:46.293Z,100.00
2019-02-05T05:37:14.368Z,100.00
2019-02-05T05:39:44.014Z,100.00
2019-02-05T05:42:13.660Z,100.00
2019-02-05T05:44:43.947Z,100.00
2019-02-05T05:47:13.652Z,100.00
2019-02-05T05:49:43.752Z,100.00
2019-02-05T05:52:13.625Z,100.00
2019-02-05T05:54:43.190Z,100.00
2019-02-05T05:57:13.048Z,100.00
2019-02-05T05:59:42.819Z,100.00
2019-02-05T06:02:12.571Z,100.00
2019-02-05T06:04:42.277Z,100.00
2019-02-05T06:07:11.878Z,100.00
2019-02-05T06:09:42.110Z,100.00
2019-02-05T06:12:11.900Z,100.00
2019-02-05T06:14:41.828Z,100.00
2019-02-05T06:17:11.621Z,100.00
2019-02-05T06:19:41.500Z,100.00
2019-02-05T06:22:11.148Z,100.00
2019-02-05T06:24:40.897Z,100.00
2019-02-05T06:27:10.784Z,100.00
2019-02-05T06:29:40.377Z,100.00
2019-02-05T06:32:10.305Z,100.00
2019-02-05T06:34:40.159Z,100.00
2019-02-05T06:37:09.700Z,100.00
2019-02-05T06:39:39.503Z,100.00
2019-02-05T06:42:09.108Z,100.00
2019-02-05T06:44:39.148Z,100.00
2019-02-05T06:47:09.179Z,100.00
2019-02-05T06:49:38.879Z,100.00
2019-02-05T06:52:08.548Z,100.00
2019-02-05T06:54:38.237Z,100.00
2019-02-05T06:57:07.923Z,100.00
2019-02-05T06:59:37.628Z,100.00
2019-02-05T07:02:09.910Z,100.00
2019-02-05T07:04:39.572Z,100.00
2019-02-05T07:07:09.164Z,100.00
2019-02-05T07:09:38.988Z,100.00
2019-02-05T07:12:08.598Z,100.00
2019-02-05T07:14:38.341Z,100.00
2019-02-05T07:17:08.640Z,100.00
2019-02-05T07:19:38.139Z,100.00
2019-02-05T07:22:07.990Z,100.00
2019-02-05T07:24:37.675Z,100.00
2019-02-05T07:27:07.904Z,100.00
2019-02-05T07:29:37.911Z,100.00
2019-02-05T07:32:08.242Z,100.00
2019-02-05T07:34:37.950Z,100.00
2019-02-05T07:37:07.664Z,100.00
2019-02-05T07:39:37.409Z,100.00
2019-02-05T07:42:07.139Z,100.00
2019-02-05T07:44:36.709Z,100.00
2019-02-05T07:47:07.104Z,100.00
2019-02-05T07:49:37.235Z,100.00
2019-02-05T07:52:07.352Z,100.00
2019-02-05T07:54:36.926Z,100.00
2019-02-05T07:57:06.790Z,100.00
2019-02-05T07:59:36.509Z,100.00
2019-02-05T08:02:06.286Z,100.00
2019-02-05T08:04:35.869Z,100.00
2019-02-05T08:07:07.698Z,100.00
2019-02-05T08:09:37.893Z,100.00
2019-02-05T08:12:07.615Z,100.00
2019-02-05T08:14:37.613Z,100.00
2019-02-05T08:17:07.417Z,100.00
2019-02-05T08:19:37.092Z,100.00
2019-02-05T08:22:06.818Z,100.00
2019-02-05T08:24:37.011Z,100.00
2019-02-05T08:27:06.703Z,100.00
2019-02-05T08:29:36.463Z,100.00
2019-02-05T08:32:06.317Z,100.00
2019-02-05T08:34:35.897Z,100.00
2019-02-05T08:37:05.687Z,100.00
2019-02-05T08:39:35.694Z,100.00
2019-02-05T08:42:05.516Z,100.00
2019-02-05T08:44:35.180Z,100.00
2019-02-05T08:47:05.370Z,100.00
2019-02-05T08:49:35.107Z,100.00
2019-02-05T08:52:06.295Z,100.00
2019-02-05T08:54:35.988Z,100.00
2019-02-05T08:57:06.103Z,100.00
2019-02-05T08:59:35.938Z,100.00
2019-02-05T09:02:05.767Z,100.00
2019-02-05T09:04:35.393Z,100.00
2019-02-05T09:07:05.166Z,100.00
2019-02-05T09:09:34.807Z,100.00
2019-02-05T09:12:05.355Z,100.00
2019-02-05T09:14:35.084Z,100.00
2019-02-05T09:17:04.623Z,100.00
2019-02-05T09:19:34.224Z,100.00
2019-02-05T09:22:03.784Z,100.00
2019-02-05T09:24:33.458Z,100.00
2019-02-05T09:27:03.528Z,100.00
2019-02-05T09:29:33.767Z,100.00
2019-02-05T09:32:03.993Z,100.00
2019-02-05T09:34:33.733Z,100.00
2019-02-05T09:37:03.302Z,100.00
2019-02-05T09:39:33.108Z,100.00
2019-02-05T09:42:02.763Z,100.00
2019-02-05T09:44:32.552Z,100.00
2019-02-05T09:47:02.209Z,100.00
2019-02-05T09:49:32.091Z,100.00
2019-02-05T09:52:01.893Z,100.00
2019-02-05T09:54:31.797Z,100.00
2019-02-05T09:57:01.712Z,100.00
2019-02-05T09:59:31.741Z,100.00
2019-02-05T10:02:01.593Z,100.00
2019-02-05T10:04:31.572Z,100.00
2019-02-05T10:07:01.936Z,100.00
2019-02-05T10:09:31.726Z,100.00
2019-02-05T10:12:01.821Z,100.00
2019-02-05T10:14:31.832Z,100.00
2019-02-05T10:17:02.210Z,100.00
2019-02-05T10:19:31.840Z,100.00
2019-02-05T10:22:02.113Z,100.00
2019-02-05T10:24:31.812Z,100.00
2019-02-05T10:27:02.012Z,100.00
2019-02-05T10:29:31.647Z,100.00
2019-02-05T10:32:01.569Z,100.00
2019-02-05T10:34:34.217Z,100.00
2019-02-05T10:37:02.852Z,100.00
2019-02-05T10:39:33.191Z,100.00
2019-02-05T10:42:22.251Z,100.00
2019-02-05T10:44:51.918Z,100.00
2019-02-05T10:47:22.662Z,100.00
2019-02-05T10:49:52.301Z,100.00
2019-02-05T10:52:22.006Z,100.00
2019-02-05T10:54:51.736Z,100.00
2019-02-05T10:57:22.045Z,100.00
2019-02-05T10:59:54.368Z,100.00
2019-02-05T11:02:22.987Z,100.00
2019-02-05T11:04:52.502Z,100.00
2019-02-05T11:07:22.212Z,100.00
2019-02-05T11:09:52.065Z,100.00
2019-02-05T11:12:22.156Z,100.00
2019-02-05T11:14:51.847Z,100.00
2019-02-05T11:17:21.542Z,100.00
2019-02-05T11:19:51.136Z,100.00
2019-02-05T11:22:20.716Z,100.00
2019-02-05T11:24:50.406Z,100.00
2019-02-05T11:27:20.057Z,100.00
2019-02-05T11:29:49.998Z,100.00
2019-02-05T11:32:19.952Z,100.00
2019-02-05T11:34:49.750Z,100.00
2019-02-05T11:37:19.505Z,100.00
2019-02-05T11:39:49.150Z,100.00
2019-02-05T11:45:20.592Z,100.00
2019-02-05T11:47:51.071Z,100.00
2019-02-05T11:50:20.911Z,100.00
2019-02-05T11:52:51.396Z,100.00
2019-02-05T11:55:27.486Z,100.00
2019-02-05T11:57:57.291Z,100.00
2019-02-05T12:00:32.995Z,100.00
2019-02-05T12:03:03.300Z,100.00
2019-02-05T12:05:33.181Z,100.00
2019-02-05T12:08:03.109Z,100.00
2019-02-05T12:10:32.721Z,100.00
2019-02-05T12:13:02.396Z,100.00
2019-02-05T12:15:32.085Z,100.00
2019-02-05T12:18:01.777Z,100.00
2019-02-05T12:20:31.526Z,100.00
2019-02-05T12:23:01.687Z,100.00
2019-02-05T12:25:32.435Z,100.00
2019-02-05T12:28:02.239Z,100.00
2019-02-05T12:30:44.472Z,100.00
2019-02-05T12:33:08.151Z,100.00
2019-02-05T12:35:38.218Z,100.00
2019-02-05T12:38:08.573Z,100.00
2019-02-05T12:40:38.691Z,100.00
2019-02-05T12:43:08.654Z,100.00
2019-02-05T12:45:39.687Z,100.00
2019-02-05T12:48:09.590Z,100.00
2019-02-05T12:50:42.141Z,100.00
2019-02-05T12:53:11.893Z,100.00
2019-02-05T12:55:41.697Z,100.00
2019-02-05T12:58:11.361Z,100.00
2019-02-05T13:00:55.986Z,100.00
2019-02-05T13:03:16.377Z,100.00
2019-02-05T13:05:46.745Z,100.00
2019-02-05T13:08:16.470Z,100.00
2019-02-05T13:10:51.016Z,100.00
2019-02-05T13:13:21.810Z,100.00
2019-02-05T13:15:51.402Z,100.00
2019-02-05T13:18:21.579Z,100.00
2019-02-05T13:20:51.491Z,100.00
2019-02-05T13:23:21.194Z,100.00
2019-02-05T13:25:50.915Z,100.00
2019-02-05T13:28:20.521Z,100.00
2019-02-05T13:30:50.292Z,100.00
2019-02-05T13:33:20.340Z,100.00
2019-02-05T13:35:50.054Z,100.00
2019-02-05T13:38:19.727Z,100.00
2019-02-05T13:40:49.391Z,100.00
2019-02-05T13:43:19.189Z,100.00
2019-02-05T13:45:49.010Z,100.00
2019-02-05T13:48:18.667Z,100.00
2019-02-05T13:50:48.266Z,100.00
2019-02-05T13:53:18.050Z,100.00
2019-02-05T13:55:47.933Z,100.00
2019-02-05T13:58:17.533Z,100.00
2019-02-05T14:00:54.508Z,100.00
2019-02-05T14:03:24.159Z,100.00
2019-02-05T14:05:53.896Z,100.00
2019-02-05T14:08:23.495Z,100.00
2019-02-05T14:10:53.379Z,100.00
2019-02-05T14:13:23.009Z,100.00
2019-02-05T14:15:53.106Z,100.00
2019-02-05T14:18:23.248Z,100.00
2019-02-05T14:20:53.340Z,100.00
2019-02-05T14:23:22.995Z,100.00
2019-02-05T14:25:52.570Z,100.00
2019-02-05T14:28:22.188Z,100.00
2019-02-05T14:30:54.311Z,100.00
2019-02-05T14:33:24.174Z,100.00
2019-02-05T14:35:53.946Z,100.00
2019-02-05T14:38:23.663Z,100.00
2019-02-05T14:40:53.379Z,100.00
2019-02-05T14:43:23.354Z,100.00
2019-02-05T14:45:53.202Z,100.00
2019-02-05T14:48:23.263Z,100.00
2019-02-05T14:50:52.989Z,100.00
2019-02-05T14:53:22.785Z,100.00
2019-02-05T14:55:52.394Z,100.00
2019-02-05T14:58:22.616Z,100.00
2019-02-05T15:00:52.416Z,100.00
2019-02-05T15:03:22.033Z,100.00
2019-02-05T15:05:51.748Z,100.00
2019-02-05T15:08:21.443Z,100.00
2019-02-05T15:10:51.224Z,100.00
2019-02-05T15:13:21.081Z,100.00
2019-02-05T15:15:50.981Z,100.00
2019-02-05T15:18:21.391Z,100.00
2019-02-05T15:20:51.525Z,100.00
2019-02-05T15:23:21.904Z,100.00
2019-02-05T15:25:52.146Z,100.00
2019-02-05T15:28:22.289Z,100.00
2019-02-05T15:30:51.875Z,100.00
2019-02-05T15:33:35.809Z,100.00
2019-02-05T15:36:10.709Z,100.00
2019-02-05T15:38:40.305Z,100.00
2019-02-05T15:41:10.141Z,100.00
2019-02-05T15:43:39.889Z,100.00
2019-02-05T15:46:10.168Z,100.00
2019-02-05T15:48:39.719Z,100.00
2019-02-05T15:51:10.064Z,100.00
2019-02-05T15:53:39.650Z,100.00
2019-02-05T15:56:09.915Z,100.00
2019-02-05T15:58:39.956Z,100.00
2019-02-05T16:01:09.957Z,100.00
2019-02-05T16:03:39.709Z,100.00
2019-02-05T16:06:09.336Z,100.00
2019-02-05T16:08:38.965Z,100.00
2019-02-05T16:11:08.792Z,100.00
2019-02-05T16:13:38.530Z,100.00
2019-02-05T16:16:08.309Z,100.00
2019-02-05T16:18:37.974Z,100.00
2019-02-05T16:21:07.764Z,100.00
2019-02-05T16:23:37.581Z,100.00
2019-02-05T16:26:07.400Z,100.00
2019-02-05T16:28:37.195Z,100.00
2019-02-05T16:31:06.846Z,100.00
2019-02-05T16:33:37.009Z,100.00
2019-02-05T16:36:07.195Z,100.00
2019-02-05T16:38:36.829Z,100.00
2019-02-05T16:41:07.243Z,100.00
2019-02-05T16:43:37.008Z,100.00
2019-02-05T16:46:08.515Z,100.00
2019-02-05T16:48:38.800Z,100.00
2019-02-05T16:51:08.652Z,100.00
2019-02-05T16:53:38.470Z,100.00
2019-02-05T16:56:08.244Z,100.00
2019-02-05T16:58:37.811Z,100.00
2019-02-05T17:01:07.680Z,100.00
2019-02-05T17:03:37.805Z,100.00
2019-02-05T17:06:07.591Z,100.00
2019-02-05T17:08:37.299Z,100.00
2019-02-05T17:11:06.963Z,100.00
2019-02-05T17:13:36.728Z,100.00
2019-02-05T17:16:06.448Z,100.00
2019-02-05T17:18:36.546Z,100.00
2019-02-05T17:21:06.565Z,100.00
2019-02-05T17:23:36.227Z,100.00
2019-02-05T17:26:06.687Z,100.00
2019-02-05T17:28:36.306Z,100.00
2019-02-05T17:31:06.198Z,100.00
2019-02-05T17:33:35.944Z,100.00
2019-02-05T17:36:06.058Z,100.00
2019-02-05T17:38:35.726Z,100.00
2019-02-05T17:41:06.488Z,100.00
2019-02-05T17:43:36.099Z,100.00
2019-02-05T17:46:06.385Z,100.00
2019-02-05T17:48:36.118Z,100.00
2019-02-05T17:51:06.097Z,100.00
2019-02-05T17:53:35.958Z,100.00
2019-02-05T17:56:06.212Z,100.00
2019-02-05T17:58:36.020Z,100.00
2019-02-05T18:01:08.254Z,100.00
2019-02-05T18:03:38.035Z,100.00
2019-02-05T18:06:08.071Z,100.00
2019-02-05T18:08:37.795Z,100.00
2019-02-05T18:11:07.898Z,100.00
2019-02-05T18:13:37.617Z,100.00
2019-02-05T18:16:10.055Z,100.00
2019-02-05T18:18:39.849Z,100.00
2019-02-05T18:21:09.508Z,100.00
2019-02-05T18:23:39.284Z,100.00
2019-02-05T18:26:09.055Z,100.00
2019-02-05T18:28:39.092Z,100.00
2019-02-05T18:31:09.026Z,100.00
2019-02-05T18:33:38.700Z,100.00
2019-02-05T18:36:08.704Z,100.00
2019-02-05T18:38:38.506Z,100.00
2019-02-05T18:41:08.172Z,100.00
2019-02-05T18:43:38.009Z,100.00
2019-02-05T18:46:07.934Z,100.00
2019-02-05T18:48:38.078Z,100.00
2019-02-05T18:51:07.827Z,100.00
2019-02-05T18:53:38.089Z,100.00
2019-02-05T18:56:07.893Z,100.00
2019-02-05T18:58:38.149Z,100.00
2019-02-05T19:01:08.298Z,100.00
2019-02-05T19:03:38.233Z,100.00
2019-02-05T19:06:08.014Z,100.00
2019-02-05T19:08:37.993Z,100.00
2019-02-05T19:11:08.044Z,100.00
2019-02-05T19:13:37.838Z,100.00
2019-02-05T19:16:07.580Z,100.00
2019-02-05T19:18:37.461Z,100.00
2019-02-05T19:21:07.409Z,100.00
2019-02-05T19:23:37.529Z,100.00
2019-02-05T19:26:12.187Z,100.00
2019-02-05T19:28:41.919Z,100.00
2019-02-05T19:31:13.315Z,100.00
2019-02-05T19:33:43.193Z,100.00
2019-02-05T19:36:12.839Z,100.00
2019-02-05T19:38:42.633Z,100.00
2019-02-05T19:41:12.497Z,100.00
2019-02-05T19:43:42.538Z,100.00
2019-02-05T19:46:19.724Z,100.00
2019-02-05T19:48:50.963Z,100.00
2019-02-05T19:51:22.997Z,100.00
2019-02-05T19:53:54.022Z,100.00
2019-02-05T19:56:23.891Z,100.00
2019-02-05T19:58:53.608Z,100.00
2019-02-05T20:01:23.391Z,100.00
2019-02-05T20:03:53.066Z,100.00
2019-02-05T20:06:22.807Z,100.00
2019-02-05T20:08:53.179Z,100.00
2019-02-05T20:11:23.272Z,100.00
2019-02-05T20:13:53.143Z,100.00
2019-02-05T20:16:22.948Z,100.00
2019-02-05T20:18:52.676Z,100.00
2019-02-05T20:21:22.462Z,100.00
2019-02-05T20:23:52.207Z,100.00
2019-02-05T20:26:22.309Z,100.00
2019-02-05T20:28:52.022Z,100.00
2019-02-05T20:31:21.669Z,100.00
2019-02-05T20:33:51.624Z,100.00
2019-02-05T20:36:21.422Z,100.00
2019-02-05T20:38:51.349Z,100.00
2019-02-05T20:41:21.427Z,100.00
2019-02-05T20:43:51.537Z,100.00
2019-02-05T20:46:21.541Z,100.00
2019-02-05T20:48:51.320Z,100.00
2019-02-05T20:51:21.053Z,100.00
2019-02-05T20:53:52.904Z,100.00
2019-02-05T20:56:22.721Z,100.00
2019-02-05T20:58:52.568Z,100.00
2019-02-05T21:01:22.357Z,100.00
2019-02-05T21:04:01.030Z,100.00
2019-02-05T21:06:23.492Z,100.00
2019-02-05T21:08:53.391Z,100.00
2019-02-05T21:11:23.472Z,100.00
2019-02-05T21:13:53.619Z,100.00
2019-02-05T21:16:23.363Z,100.00
2019-02-05T21:18:53.229Z,100.00
2019-02-05T21:21:22.858Z,100.00
2019-02-05T21:23:52.643Z,100.00
2019-02-05T21:26:22.713Z,100.00
2019-02-05T21:28:52.516Z,100.00
2019-02-05T21:31:22.158Z,100.00
2019-02-05T21:33:51.953Z,100.00
2019-02-05T21:36:21.729Z,100.00
2019-02-05T21:38:51.347Z,100.00
2019-02-05T21:41:21.227Z,100.00
2019-02-05T21:43:51.625Z,100.00
2019-02-05T21:46:21.452Z,100.00
2019-02-05T21:48:51.030Z,100.00
2019-02-05T21:51:20.749Z,100.00
2019-02-05T21:53:50.432Z,100.00
2019-02-05T21:56:20.140Z,100.00
2019-02-05T21:58:50.701Z,100.00
2019-02-05T22:01:20.462Z,100.00
2019-02-05T22:03:50.276Z,100.00
2019-02-05T22:06:20.463Z,100.00
2019-02-05T22:08:50.370Z,100.00
2019-02-05T22:11:20.353Z,100.00
2019-02-05T22:13:50.644Z,100.00
2019-02-05T22:16:20.646Z,100.00
2019-02-05T22:18:50.333Z,100.00
2019-02-05T22:21:20.600Z,100.00
2019-02-05T22:23:50.782Z,100.00
2019-02-05T22:26:20.882Z,100.00
2019-02-05T22:28:51.903Z,100.00
2019-02-05T22:31:21.576Z,100.00
2019-02-05T22:33:51.452Z,100.00
2019-02-05T22:36:21.349Z,100.00
2019-02-05T22:38:51.238Z,100.00
2019-02-05T22:41:21.403Z,100.00
2019-02-05T22:43:52.122Z,100.00
2019-02-05T22:46:21.834Z,100.00
2019-02-05T22:48:51.906Z,100.00
2019-02-05T22:51:21.595Z,100.00
2019-02-05T22:53:51.417Z,100.00
2019-02-05T22:56:21.572Z,100.00
2019-02-05T22:58:51.525Z,100.00
2019-02-05T23:01:25.945Z,100.00
2019-02-05T23:04:00.785Z,100.00
2019-02-05T23:06:50.400Z,100.00
2019-02-05T23:09:33.219Z,100.00
2019-02-05T23:12:22.710Z,100.00
2019-02-05T23:15:03.264Z,100.00
2019-02-05T23:17:33.204Z,100.00
2019-02-05T23:20:02.912Z,100.00
2019-02-05T23:22:32.597Z,100.00
2019-02-05T23:25:02.345Z,100.00
2019-02-05T23:27:31.966Z,100.00
2019-02-05T23:30:01.777Z,100.00
2019-02-05T23:32:31.480Z,100.00
2019-02-05T23:35:02.745Z,100.00
2019-02-05T23:37:32.807Z,100.00
2019-02-05T23:40:03.044Z,100.00
2019-02-05T23:42:32.751Z,100.00
2019-02-05T23:45:02.477Z,100.00
2019-02-05T23:47:32.307Z,100.00
2019-02-05T23:50:01.815Z,100.00
2019-02-05T23:52:31.553Z,100.00
2019-02-05T23:55:01.662Z,100.00
2019-02-05T23:57:31.422Z,100.00
